sensor_id;sensor_type;location;lat;lon;timestamp;pressure;altitude;pressure_sealevel;temperature;humidity
70127;BME280;57491;42.694;23.314;2023-08-30T00:00:50;94235.53;;;23.34;59.87
70127;BME280;57491;42.694;23.314;2023-08-30T00:03:17;94212.78;;;23.28;59.26
70127;BME280;57491;42.694;23.314;2023-08-30T00:05:44;94225.75;;;23.29;58.04
70127;BME280;57491;42.694;23.314;2023-08-30T00:08:11;94224.97;;;23.29;58.64
70127;BME280;57491;42.694;23.314;2023-08-30T00:10:39;94223.16;;;23.24;58.05
70127;BME280;57491;42.694;23.314;2023-08-30T00:13:10;94226.09;;;23.23;57.99
70127;BME280;57491;42.694;23.314;2023-08-30T00:15:37;94241.25;;;23.17;57.27
70127;BME280;57491;42.694;23.314;2023-08-30T00:18:05;94245.53;;;23.13;57.01
70127;BME280;57491;42.694;23.314;2023-08-30T00:20:32;94241.88;;;23.04;56.78
70127;BME280;57491;42.694;23.314;2023-08-30T00:23:00;94230.28;;;22.95;56.90
70127;BME280;57491;42.694;23.314;2023-08-30T00:25:27;94227.69;;;22.85;57.14
70127;BME280;57491;42.694;23.314;2023-08-30T00:27:54;94231.22;;;22.65;57.91
70127;BME280;57491;42.694;23.314;2023-08-30T00:30:22;94222.28;;;22.56;58.08
70127;BME280;57491;42.694;23.314;2023-08-30T00:32:49;94213.59;;;22.45;58.33
70127;BME280;57491;42.694;23.314;2023-08-30T00:35:16;94207.50;;;22.45;58.95
70127;BME280;57491;42.694;23.314;2023-08-30T00:37:44;94216.72;;;22.52;58.59
70127;BME280;57491;42.694;23.314;2023-08-30T00:40:11;94216.72;;;22.52;58.36
70127;BME280;57491;42.694;23.314;2023-08-30T00:42:38;94210.38;;;22.48;58.98
70127;BME280;57491;42.694;23.314;2023-08-30T00:45:06;94213.84;;;22.44;58.90
70127;BME280;57491;42.694;23.314;2023-08-30T00:47:35;94180.88;;;22.21;59.14
70127;BME280;57491;42.694;23.314;2023-08-30T00:50:03;94220.50;;;22.41;59.17
70127;BME280;57491;42.694;23.314;2023-08-30T00:52:31;94228.94;;;22.43;58.76
70127;BME280;57491;42.694;23.314;2023-08-30T00:54:58;94232.16;;;22.40;58.73
70127;BME280;57491;42.694;23.314;2023-08-30T00:57:25;94239.06;;;22.36;58.69
70127;BME280;57491;42.694;23.314;2023-08-30T00:59:53;94215.59;;;22.14;58.69
70127;BME280;57491;42.694;23.314;2023-08-30T01:02:21;94243.38;;;22.17;58.91
70127;BME280;57491;42.694;23.314;2023-08-30T01:04:51;94224.84;;;22.17;58.51
70127;BME280;57491;42.694;23.314;2023-08-30T01:07:19;94223.25;;;22.16;58.50
70127;BME280;57491;42.694;23.314;2023-08-30T01:09:46;94228.53;;;22.21;58.50
70127;BME280;57491;42.694;23.314;2023-08-30T01:12:17;94242.28;;;22.28;58.54
70127;BME280;57491;42.694;23.314;2023-08-30T01:14:59;94248.06;;;22.35;58.14
70127;BME280;57491;42.694;23.314;2023-08-30T01:17:27;94259.44;;;22.36;58.05
70127;BME280;57491;42.694;23.314;2023-08-30T01:20:00;94261.28;;;22.45;57.80
70127;BME280;57491;42.694;23.314;2023-08-30T01:22:38;94268.41;;;22.50;57.60
70127;BME280;57491;42.694;23.314;2023-08-30T01:25:15;94274.47;;;22.55;57.28
70127;BME280;57491;42.694;23.314;2023-08-30T01:27:45;94270.78;;;22.51;56.73
70127;BME280;57491;42.694;23.314;2023-08-30T01:30:14;94261.50;;;22.54;57.51
70127;BME280;57491;42.694;23.314;2023-08-30T01:32:43;94254.06;;;22.56;57.46
70127;BME280;57491;42.694;23.314;2023-08-30T01:35:12;94252.97;;;22.62;56.88
70127;BME280;57491;42.694;23.314;2023-08-30T01:37:43;94246.38;;;22.59;56.33
70127;BME280;57491;42.694;23.314;2023-08-30T01:40:11;94243.44;;;22.61;56.57
70127;BME280;57491;42.694;23.314;2023-08-30T01:42:40;94258.50;;;22.65;56.71
70127;BME280;57491;42.694;23.314;2023-08-30T01:45:13;94259.31;;;22.66;55.94
70127;BME280;57491;42.694;23.314;2023-08-30T01:47:42;94251.66;;;22.64;56.11
70127;BME280;57491;42.694;23.314;2023-08-30T01:50:11;94249.00;;;22.59;56.16
70127;BME280;57491;42.694;23.314;2023-08-30T01:52:39;94244.78;;;22.53;57.07
70127;BME280;57491;42.694;23.314;2023-08-30T01:55:08;94239.50;;;22.53;56.88
70127;BME280;57491;42.694;23.314;2023-08-30T01:57:35;94240.03;;;22.55;57.15
70127;BME280;57491;42.694;23.314;2023-08-30T02:00:03;94247.16;;;22.60;56.97
70127;BME280;57491;42.694;23.314;2023-08-30T02:02:33;94258.00;;;22.63;56.88
70127;BME280;57491;42.694;23.314;2023-08-30T02:05:00;94252.16;;;22.66;56.87
70127;BME280;57491;42.694;23.314;2023-08-30T02:07:28;94251.88;;;22.68;56.70
70127;BME280;57491;42.694;23.314;2023-08-30T02:10:00;94225.19;;;22.54;57.20
70127;BME280;57491;42.694;23.314;2023-08-30T02:12:31;94249.22;;;22.68;57.04
70127;BME280;57491;42.694;23.314;2023-08-30T02:15:02;94247.38;;;22.68;56.19
70127;BME280;57491;42.694;23.314;2023-08-30T02:17:30;94248.72;;;22.71;56.85
70127;BME280;57491;42.694;23.314;2023-08-30T02:19:59;94257.44;;;22.72;57.07
70127;BME280;57491;42.694;23.314;2023-08-30T02:22:26;94258.72;;;22.79;57.41
70127;BME280;57491;42.694;23.314;2023-08-30T02:24:53;94246.56;;;22.78;57.60
70127;BME280;57491;42.694;23.314;2023-08-30T02:27:20;94239.69;;;22.67;57.55
70127;BME280;57491;42.694;23.314;2023-08-30T02:29:48;94236.81;;;22.58;58.01
70127;BME280;57491;42.694;23.314;2023-08-30T02:32:15;94240.53;;;22.57;58.03
70127;BME280;57491;42.694;23.314;2023-08-30T02:34:48;94245.06;;;22.52;58.32
70127;BME280;57491;42.694;23.314;2023-08-30T02:37:17;94235.25;;;22.52;58.66
70127;BME280;57491;42.694;23.314;2023-08-30T02:39:44;94230.25;;;22.51;58.01
70127;BME280;57491;42.694;23.314;2023-08-30T02:42:11;94230.56;;;22.39;57.69
70127;BME280;57491;42.694;23.314;2023-08-30T02:44:39;94221.13;;;22.23;57.46
70127;BME280;57491;42.694;23.314;2023-08-30T02:47:06;94237.47;;;22.35;57.46
70127;BME280;57491;42.694;23.314;2023-08-30T02:49:33;94230.59;;;22.29;57.78
70127;BME280;57491;42.694;23.314;2023-08-30T02:52:00;94227.94;;;22.29;58.22
70127;BME280;57491;42.694;23.314;2023-08-30T02:54:28;94221.63;;;22.25;58.41
70127;BME280;57491;42.694;23.314;2023-08-30T02:56:55;94220.28;;;22.28;58.42
70127;BME280;57491;42.694;23.314;2023-08-30T02:59:22;94221.63;;;22.25;58.53
70127;BME280;57491;42.694;23.314;2023-08-30T03:01:50;94220.81;;;22.24;58.57
70127;BME280;57491;42.694;23.314;2023-08-30T03:04:17;94223.22;;;22.26;59.01
70127;BME280;57491;42.694;23.314;2023-08-30T03:06:44;94222.41;;;22.25;58.79
70127;BME280;57491;42.694;23.314;2023-08-30T03:09:11;94222.16;;;22.27;58.59
70127;BME280;57491;42.694;23.314;2023-08-30T03:11:41;94229.84;;;22.23;58.70
70127;BME280;57491;42.694;23.314;2023-08-30T03:14:08;94231.72;;;22.18;58.48
70127;BME280;57491;42.694;23.314;2023-08-30T03:16:35;94226.97;;;22.15;58.37
70127;BME280;57491;42.694;23.314;2023-08-30T03:19:03;94239.69;;;22.13;58.70
70127;BME280;57491;42.694;23.314;2023-08-30T03:21:30;94239.69;;;22.13;57.85
70127;BME280;57491;42.694;23.314;2023-08-30T03:23:57;94236.25;;;22.07;57.62
70127;BME280;57491;42.694;23.314;2023-08-30T03:26:24;94232.84;;;22.02;58.24
70127;BME280;57491;42.694;23.314;2023-08-30T03:28:52;94224.88;;;22.07;57.77
70127;BME280;57491;42.694;23.314;2023-08-30T03:31:21;94219.34;;;21.98;57.43
70127;BME280;57491;42.694;23.314;2023-08-30T03:33:48;94221.19;;;22.03;56.77
70127;BME280;57491;42.694;23.314;2023-08-30T03:36:17;94213.22;;;22.03;56.75
70127;BME280;57491;42.694;23.314;2023-08-30T03:38:45;94213.22;;;22.03;56.92
70127;BME280;57491;42.694;23.314;2023-08-30T03:41:13;94210.56;;;22.08;56.88
70127;BME280;57491;42.694;23.314;2023-08-30T03:43:40;94207.41;;;22.11;56.82
70127;BME280;57491;42.694;23.314;2023-08-30T03:46:08;94211.38;;;22.08;57.07
70127;BME280;57491;42.694;23.314;2023-08-30T03:48:37;94218.75;;;22.11;56.99
70127;BME280;57491;42.694;23.314;2023-08-30T03:51:04;94219.31;;;22.08;56.93
70127;BME280;57491;42.694;23.314;2023-08-30T03:53:31;94222.19;;;22.12;56.25
70127;BME280;57491;42.694;23.314;2023-08-30T03:55:58;94225.88;;;22.16;56.10
70127;BME280;57491;42.694;23.314;2023-08-30T03:58:26;94223.53;;;22.14;55.63
70127;BME280;57491;42.694;23.314;2023-08-30T04:00:53;94238.06;;;22.22;55.44
70127;BME280;57491;42.694;23.314;2023-08-30T04:03:21;94248.38;;;22.29;56.00
70127;BME280;57491;42.694;23.314;2023-08-30T04:05:54;94249.63;;;22.41;55.21
70127;BME280;57491;42.694;23.314;2023-08-30T04:08:22;94236.59;;;22.55;55.56
70127;BME280;57491;42.694;23.314;2023-08-30T04:10:52;94229.09;;;22.72;55.05
70127;BME280;57491;42.694;23.314;2023-08-30T04:13:19;94236.41;;;22.90;54.33
70127;BME280;57491;42.694;23.314;2023-08-30T04:15:47;94232.31;;;23.08;53.98
70127;BME280;57491;42.694;23.314;2023-08-30T04:18:15;94251.19;;;23.35;53.29
70127;BME280;57491;42.694;23.314;2023-08-30T04:20:45;94260.09;;;23.54;52.39
70127;BME280;57491;42.694;23.314;2023-08-30T04:23:13;94259.13;;;23.69;51.96
70127;BME280;57491;42.694;23.314;2023-08-30T04:25:40;94261.13;;;23.82;51.39
70127;BME280;57491;42.694;23.314;2023-08-30T04:28:07;94258.69;;;23.91;51.15
70127;BME280;57491;42.694;23.314;2023-08-30T04:30:36;94255.50;;;23.89;50.40
70127;BME280;57491;42.694;23.314;2023-08-30T04:33:04;94285.09;;;24.01;49.96
70127;BME280;57491;42.694;23.314;2023-08-30T04:35:31;94295.91;;;24.10;49.88
70127;BME280;57491;42.694;23.314;2023-08-30T04:38:00;94305.28;;;24.02;54.02
70127;BME280;57491;42.694;23.314;2023-08-30T04:40:28;94319.09;;;24.04;54.66
70127;BME280;57491;42.694;23.314;2023-08-30T04:42:56;94318.56;;;24.02;54.65
70127;BME280;57491;42.694;23.314;2023-08-30T04:45:23;94290.41;;;23.77;53.11
70127;BME280;57491;42.694;23.314;2023-08-30T04:47:50;94309.16;;;23.86;50.60
70127;BME280;57491;42.694;23.314;2023-08-30T04:50:18;94315.56;;;23.80;50.63
70127;BME280;57491;42.694;23.314;2023-08-30T04:52:45;94311.63;;;23.77;50.50
70127;BME280;57491;42.694;23.314;2023-08-30T04:55:14;94320.88;;;23.80;49.29
70127;BME280;57491;42.694;23.314;2023-08-30T04:57:41;94306.31;;;23.77;50.49
70127;BME280;57491;42.694;23.314;2023-08-30T05:00:11;94298.41;;;23.72;49.94
70127;BME280;57491;42.694;23.314;2023-08-30T05:02:38;94295.34;;;23.55;49.51
70127;BME280;57491;42.694;23.314;2023-08-30T05:05:08;94299.41;;;23.42;50.30
70127;BME280;57491;42.694;23.314;2023-08-30T05:07:35;94312.47;;;23.34;50.07
70127;BME280;57491;42.694;23.314;2023-08-30T05:10:02;94301.44;;;23.17;51.05
70127;BME280;57491;42.694;23.314;2023-08-30T05:12:31;94305.44;;;23.14;51.63
70127;BME280;57491;42.694;23.314;2023-08-30T05:14:58;94302.81;;;23.14;52.01
70127;BME280;57491;42.694;23.314;2023-08-30T05:17:25;94302.81;;;23.14;51.86
70127;BME280;57491;42.694;23.314;2023-08-30T05:19:54;94303.56;;;23.14;51.55
70127;BME280;57491;42.694;23.314;2023-08-30T05:22:21;94306.47;;;23.23;51.80
70127;BME280;57491;42.694;23.314;2023-08-30T05:24:48;94310.09;;;23.32;51.04
70127;BME280;57491;42.694;23.314;2023-08-30T05:27:15;94303.13;;;23.41;50.73
70127;BME280;57491;42.694;23.314;2023-08-30T05:29:45;94313.38;;;23.58;51.40
70127;BME280;57491;42.694;23.314;2023-08-30T05:32:12;94318.28;;;23.75;50.01
70127;BME280;57491;42.694;23.314;2023-08-30T05:34:39;94312.94;;;23.80;49.87
70127;BME280;57491;42.694;23.314;2023-08-30T05:37:06;94320.00;;;23.89;50.16
70127;BME280;57491;42.694;23.314;2023-08-30T05:39:34;94322.31;;;23.96;49.75
70127;BME280;57491;42.694;23.314;2023-08-30T05:42:01;94317.53;;;23.98;49.65
70127;BME280;57491;42.694;23.314;2023-08-30T05:44:28;94307.38;;;24.05;49.67
70127;BME280;57491;42.694;23.314;2023-08-30T05:46:57;94297.16;;;24.22;48.58
70127;BME280;57491;42.694;23.314;2023-08-30T05:49:24;94310.25;;;24.37;48.55
70127;BME280;57491;42.694;23.314;2023-08-30T05:51:51;94303.44;;;24.50;48.24
70127;BME280;57491;42.694;23.314;2023-08-30T05:54:18;94305.88;;;24.70;47.78
70127;BME280;57491;42.694;23.314;2023-08-30T05:56:45;94308.06;;;24.87;47.43
70127;BME280;57491;42.694;23.314;2023-08-30T05:59:12;94301.56;;;24.98;46.88
70127;BME280;57491;42.694;23.314;2023-08-30T06:01:39;94308.09;;;25.24;45.60
70127;BME280;57491;42.694;23.314;2023-08-30T06:04:08;94317.00;;;25.33;45.62
70127;BME280;57491;42.694;23.314;2023-08-30T06:06:35;94307.78;;;25.45;44.97
70127;BME280;57491;42.694;23.314;2023-08-30T06:09:02;94306.72;;;25.64;44.86
70127;BME280;57491;42.694;23.314;2023-08-30T06:11:30;94302.50;;;25.77;43.99
70127;BME280;57491;42.694;23.314;2023-08-30T06:13:57;94301.81;;;25.85;43.49
70127;BME280;57491;42.694;23.314;2023-08-30T06:16:25;94278.06;;;25.75;43.91
70127;BME280;57491;42.694;23.314;2023-08-30T06:18:52;94294.34;;;25.87;44.12
70127;BME280;57491;42.694;23.314;2023-08-30T06:21:21;94294.75;;;25.94;43.72
70127;BME280;57491;42.694;23.314;2023-08-30T06:23:48;94300.50;;;26.01;42.96
70127;BME280;57491;42.694;23.314;2023-08-30T06:26:16;94298.59;;;26.21;43.26
70127;BME280;57491;42.694;23.314;2023-08-30T06:28:43;94313.78;;;26.34;42.05
70127;BME280;57491;42.694;23.314;2023-08-30T06:31:10;94312.50;;;26.45;42.03
70127;BME280;57491;42.694;23.314;2023-08-30T06:33:37;94320.59;;;26.67;41.41
70127;BME280;57491;42.694;23.314;2023-08-30T06:36:05;94305.38;;;26.95;41.41
70127;BME280;57491;42.694;23.314;2023-08-30T06:38:34;94307.53;;;27.06;40.33
70127;BME280;57491;42.694;23.314;2023-08-30T06:41:01;94313.50;;;27.26;40.97
70127;BME280;57491;42.694;23.314;2023-08-30T06:43:28;94308.09;;;27.53;39.57
70127;BME280;57491;42.694;23.314;2023-08-30T06:45:57;94312.59;;;27.66;38.52
70127;BME280;57491;42.694;23.314;2023-08-30T06:48:24;94320.16;;;27.64;38.82
70127;BME280;57491;42.694;23.314;2023-08-30T06:50:51;94312.94;;;27.65;38.39
70127;BME280;57491;42.694;23.314;2023-08-30T06:53:18;94311.41;;;27.72;38.61
70127;BME280;57491;42.694;23.314;2023-08-30T06:55:56;94311.94;;;27.61;38.24
70127;BME280;57491;42.694;23.314;2023-08-30T06:58:23;94305.44;;;27.53;38.92
70127;BME280;57491;42.694;23.314;2023-08-30T07:00:50;94309.81;;;27.49;39.15
70127;BME280;57491;42.694;23.314;2023-08-30T07:03:17;94306.59;;;27.47;39.58
70127;BME280;57491;42.694;23.314;2023-08-30T07:05:45;94313.75;;;27.38;40.21
70127;BME280;57491;42.694;23.314;2023-08-30T07:08:13;94306.00;;;27.28;40.10
70127;BME280;57491;42.694;23.314;2023-08-30T07:10:40;94314.41;;;27.21;40.47
70127;BME280;57491;42.694;23.314;2023-08-30T07:13:09;94309.31;;;27.33;40.82
70127;BME280;57491;42.694;23.314;2023-08-30T07:15:38;94307.72;;;27.46;39.67
70127;BME280;57491;42.694;23.314;2023-08-30T07:18:06;94312.31;;;27.68;39.17
70127;BME280;57491;42.694;23.314;2023-08-30T07:20:33;94308.47;;;27.82;38.87
70127;BME280;57491;42.694;23.314;2023-08-30T07:23:02;94311.38;;;28.17;38.26
70127;BME280;57491;42.694;23.314;2023-08-30T07:25:29;94313.38;;;28.42;39.14
70127;BME280;57491;42.694;23.314;2023-08-30T07:27:58;94313.63;;;28.63;38.71
70127;BME280;57491;42.694;23.314;2023-08-30T07:30:26;94318.09;;;28.85;38.05
70127;BME280;57491;42.694;23.314;2023-08-30T07:32:54;94322.97;;;28.82;37.36
70127;BME280;57491;42.694;23.314;2023-08-30T07:35:21;94315.47;;;29.02;36.97
70127;BME280;57491;42.694;23.314;2023-08-30T07:37:48;94317.84;;;29.12;37.21
70127;BME280;57491;42.694;23.314;2023-08-30T07:40:15;94322.56;;;29.15;36.54
70127;BME280;57491;42.694;23.314;2023-08-30T07:42:42;94322.31;;;29.42;36.80
70127;BME280;57491;42.694;23.314;2023-08-30T07:45:09;94319.16;;;29.66;36.07
70127;BME280;57491;42.694;23.314;2023-08-30T07:47:37;94317.56;;;29.91;34.60
70127;BME280;57491;42.694;23.314;2023-08-30T07:50:06;94299.41;;;30.05;33.31
70127;BME280;57491;42.694;23.314;2023-08-30T07:52:33;94299.84;;;30.24;32.94
70127;BME280;57491;42.694;23.314;2023-08-30T07:55:00;94302.25;;;30.55;32.45
70127;BME280;57491;42.694;23.314;2023-08-30T07:57:27;94306.56;;;30.77;31.59
70127;BME280;57491;42.694;23.314;2023-08-30T07:59:55;94308.81;;;31.04;31.53
70127;BME280;57491;42.694;23.314;2023-08-30T08:02:22;94302.94;;;31.31;31.11
70127;BME280;57491;42.694;23.314;2023-08-30T08:04:50;94323.94;;;31.59;32.07
70127;BME280;57491;42.694;23.314;2023-08-30T08:07:17;94312.13;;;31.93;30.86
70127;BME280;57491;42.694;23.314;2023-08-30T08:09:44;94313.81;;;31.97;30.07
70127;BME280;57491;42.694;23.314;2023-08-30T08:12:12;94310.44;;;31.67;30.82
70127;BME280;57491;42.694;23.314;2023-08-30T08:14:39;94313.25;;;31.71;31.17
70127;BME280;57491;42.694;23.314;2023-08-30T08:17:06;94311.31;;;31.92;30.86
70127;BME280;57491;42.694;23.314;2023-08-30T08:19:33;94320.94;;;32.14;30.19
70127;BME280;57491;42.694;23.314;2023-08-30T08:22:06;94308.84;;;32.20;29.17
70127;BME280;57491;42.694;23.314;2023-08-30T08:24:33;94326.34;;;32.38;28.98
70127;BME280;57491;42.694;23.314;2023-08-30T08:27:00;94322.41;;;32.23;29.64
70127;BME280;57491;42.694;23.314;2023-08-30T08:29:28;94320.66;;;32.40;29.23
70127;BME280;57491;42.694;23.314;2023-08-30T08:31:55;94322.41;;;32.68;29.71
70127;BME280;57491;42.694;23.314;2023-08-30T08:34:21;94332.59;;;32.99;29.67
70127;BME280;57491;42.694;23.314;2023-08-30T08:36:49;94329.91;;;33.11;29.36
70127;BME280;57491;42.694;23.314;2023-08-30T08:39:17;94320.25;;;32.98;29.17
70127;BME280;57491;42.694;23.314;2023-08-30T08:41:44;94317.09;;;32.96;29.46
70127;BME280;57491;42.694;23.314;2023-08-30T08:44:12;94322.44;;;32.48;30.12
70127;BME280;57491;42.694;23.314;2023-08-30T08:46:41;94285.00;;;32.30;29.61
70127;BME280;57491;42.694;23.314;2023-08-30T08:49:09;94311.94;;;33.03;28.89
70127;BME280;57491;42.694;23.314;2023-08-30T08:51:39;94316.22;;;33.16;27.76
70127;BME280;57491;42.694;23.314;2023-08-30T08:54:07;94324.00;;;33.46;28.13
70127;BME280;57491;42.694;23.314;2023-08-30T08:56:38;94323.78;;;33.51;28.78
70127;BME280;57491;42.694;23.314;2023-08-30T08:59:06;94317.50;;;33.59;27.77
70127;BME280;57491;42.694;23.314;2023-08-30T09:01:34;94311.41;;;33.62;27.94
70127;BME280;57491;42.694;23.314;2023-08-30T09:04:04;94313.59;;;33.84;27.91
70127;BME280;57491;42.694;23.314;2023-08-30T09:06:31;94309.81;;;33.73;27.77
70127;BME280;57491;42.694;23.314;2023-08-30T09:08:59;94307.81;;;33.98;28.00
70127;BME280;57491;42.694;23.314;2023-08-30T09:11:25;94300.56;;;34.45;27.74
70127;BME280;57491;42.694;23.314;2023-08-30T09:13:54;94307.03;;;34.88;27.20
70127;BME280;57491;42.694;23.314;2023-08-30T09:16:21;94305.13;;;34.88;26.30
70127;BME280;57491;42.694;23.314;2023-08-30T09:18:57;94300.06;;;35.03;25.85
70127;BME280;57491;42.694;23.314;2023-08-30T09:21:25;94270.81;;;35.24;26.41
70127;BME280;57491;42.694;23.314;2023-08-30T09:23:59;94283.19;;;35.79;24.91
70127;BME280;57491;42.694;23.314;2023-08-30T09:26:27;94286.22;;;35.97;25.10
70127;BME280;57491;42.694;23.314;2023-08-30T09:29:01;94285.63;;;36.49;24.18
70127;BME280;57491;42.694;23.314;2023-08-30T09:31:32;94292.19;;;36.48;23.94
70127;BME280;57491;42.694;23.314;2023-08-30T09:33:59;94289.09;;;36.69;23.81
70127;BME280;57491;42.694;23.314;2023-08-30T09:36:33;94291.75;;;37.14;23.32
70127;BME280;57491;42.694;23.314;2023-08-30T09:39:03;94304.88;;;37.12;22.77
70127;BME280;57491;42.694;23.314;2023-08-30T09:41:30;94292.94;;;36.67;23.39
70127;BME280;57491;42.694;23.314;2023-08-30T09:44:05;94296.34;;;36.00;25.27
70127;BME280;57491;42.694;23.314;2023-08-30T09:46:32;94290.69;;;35.66;24.94
70127;BME280;57491;42.694;23.314;2023-08-30T09:49:06;94288.75;;;35.32;25.57
70127;BME280;57491;42.694;23.314;2023-08-30T09:51:35;94272.00;;;35.07;26.30
70127;BME280;57491;42.694;23.314;2023-08-30T09:54:04;94280.97;;;34.64;26.86
70127;BME280;57491;42.694;23.314;2023-08-30T09:56:32;94275.84;;;34.59;26.74
70127;BME280;57491;42.694;23.314;2023-08-30T09:59:02;94279.97;;;34.84;27.08
70127;BME280;57491;42.694;23.314;2023-08-30T10:01:30;94271.44;;;35.17;26.84
70127;BME280;57491;42.694;23.314;2023-08-30T10:03:57;94268.63;;;35.29;26.14
70127;BME280;57491;42.694;23.314;2023-08-30T10:06:26;94270.94;;;35.12;26.29
70127;BME280;57491;42.694;23.314;2023-08-30T10:08:53;94274.56;;;34.69;26.05
70127;BME280;57491;42.694;23.314;2023-08-30T10:11:21;94273.50;;;34.42;26.49
70127;BME280;57491;42.694;23.314;2023-08-30T10:13:51;94274.91;;;34.36;27.15
70127;BME280;57491;42.694;23.314;2023-08-30T10:16:22;94265.59;;;34.18;26.93
70127;BME280;57491;42.694;23.314;2023-08-30T10:18:54;94264.13;;;34.67;27.30
70127;BME280;57491;42.694;23.314;2023-08-30T10:21:21;94258.50;;;34.91;26.48
70127;BME280;57491;42.694;23.314;2023-08-30T10:23:50;94254.34;;;35.29;25.40
70127;BME280;57491;42.694;23.314;2023-08-30T10:26:23;94250.56;;;34.99;26.00
70127;BME280;57491;42.694;23.314;2023-08-30T10:28:52;94251.41;;;35.18;25.91
70127;BME280;57491;42.694;23.314;2023-08-30T10:31:21;94257.91;;;35.71;26.11
70127;BME280;57491;42.694;23.314;2023-08-30T10:33:49;94251.81;;;35.74;25.63
70127;BME280;57491;42.694;23.314;2023-08-30T10:36:22;94251.72;;;35.52;25.68
70127;BME280;57491;42.694;23.314;2023-08-30T10:38:50;94252.41;;;35.29;26.31
70127;BME280;57491;42.694;23.314;2023-08-30T10:41:22;94244.00;;;34.80;26.81
70127;BME280;57491;42.694;23.314;2023-08-30T10:43:50;94246.78;;;34.53;26.82
70127;BME280;57491;42.694;23.314;2023-08-30T10:46:30;94240.25;;;34.54;27.27
70127;BME280;57491;42.694;23.314;2023-08-30T10:49:08;94238.84;;;34.28;27.29
70127;BME280;57491;42.694;23.314;2023-08-30T10:51:37;94231.72;;;34.36;27.02
70127;BME280;57491;42.694;23.314;2023-08-30T10:54:11;94232.84;;;34.35;26.90
70127;BME280;57491;42.694;23.314;2023-08-30T10:56:46;94240.06;;;34.46;26.44
70127;BME280;57491;42.694;23.314;2023-08-30T10:59:17;94237.97;;;34.24;26.67
70127;BME280;57491;42.694;23.314;2023-08-30T11:01:47;94240.16;;;34.50;26.96
70127;BME280;57491;42.694;23.314;2023-08-30T11:04:15;94233.16;;;34.65;26.26
70127;BME280;57491;42.694;23.314;2023-08-30T11:06:44;94223.84;;;35.13;26.03
70127;BME280;57491;42.694;23.314;2023-08-30T11:09:16;94224.53;;;35.83;24.24
70127;BME280;57491;42.694;23.314;2023-08-30T11:11:45;94226.44;;;36.70;23.46
70127;BME280;57491;42.694;23.314;2023-08-30T11:14:13;94231.94;;;36.77;22.50
70127;BME280;57491;42.694;23.314;2023-08-30T11:16:40;94227.75;;;37.06;21.28
70127;BME280;57491;42.694;23.314;2023-08-30T11:19:10;94226.88;;;37.28;20.58
70127;BME280;57491;42.694;23.314;2023-08-30T11:21:38;94225.72;;;37.29;20.67
70127;BME280;57491;42.694;23.314;2023-08-30T11:24:06;94220.00;;;38.01;20.38
70127;BME280;57491;42.694;23.314;2023-08-30T11:26:33;94203.19;;;38.29;19.31
70127;BME280;57491;42.694;23.314;2023-08-30T11:29:04;94196.09;;;38.14;18.74
70127;BME280;57491;42.694;23.314;2023-08-30T11:31:31;94200.25;;;38.01;18.20
70127;BME280;57491;42.694;23.314;2023-08-30T11:33:59;94193.75;;;38.16;18.19
70127;BME280;57491;42.694;23.314;2023-08-30T11:36:29;94190.69;;;37.80;18.33
70127;BME280;57491;42.694;23.314;2023-08-30T11:38:57;94184.16;;;38.25;18.19
70127;BME280;57491;42.694;23.314;2023-08-30T11:41:24;94191.69;;;38.02;18.66
70127;BME280;57491;42.694;23.314;2023-08-30T11:43:52;94185.25;;;38.17;18.46
70127;BME280;57491;42.694;23.314;2023-08-30T11:46:20;94190.09;;;38.41;18.08
70127;BME280;57491;42.694;23.314;2023-08-30T11:48:49;94181.06;;;38.78;18.02
70127;BME280;57491;42.694;23.314;2023-08-30T11:51:18;94170.91;;;39.33;17.94
70127;BME280;57491;42.694;23.314;2023-08-30T11:53:47;94171.94;;;39.07;17.68
70127;BME280;57491;42.694;23.314;2023-08-30T11:56:15;94155.53;;;38.35;17.71
70127;BME280;57491;42.694;23.314;2023-08-30T11:58:43;94180.88;;;39.08;17.65
70127;BME280;57491;42.694;23.314;2023-08-30T12:01:11;94164.84;;;38.89;18.08
70127;BME280;57491;42.694;23.314;2023-08-30T12:03:39;94173.69;;;38.75;17.22
70127;BME280;57491;42.694;23.314;2023-08-30T12:06:09;94169.53;;;38.40;16.06
70127;BME280;57491;42.694;23.314;2023-08-30T12:08:37;94167.69;;;37.67;17.45
70127;BME280;57491;42.694;23.314;2023-08-30T12:11:05;94156.47;;;37.69;18.15
70127;BME280;57491;42.694;23.314;2023-08-30T12:13:43;94164.19;;;37.03;17.35
70127;BME280;57491;42.694;23.314;2023-08-30T12:16:15;94146.38;;;36.73;18.02
70127;BME280;57491;42.694;23.314;2023-08-30T12:18:44;94153.63;;;36.95;18.11
70127;BME280;57491;42.694;23.314;2023-08-30T12:21:13;94150.53;;;37.23;18.70
70127;BME280;57491;42.694;23.314;2023-08-30T12:23:40;94152.91;;;37.98;18.35
70127;BME280;57491;42.694;23.314;2023-08-30T12:26:09;94153.28;;;39.06;16.43
70127;BME280;57491;42.694;23.314;2023-08-30T12:28:38;94157.28;;;39.30;15.42
70127;BME280;57491;42.694;23.314;2023-08-30T12:31:05;94145.97;;;38.01;16.89
70127;BME280;57491;42.694;23.314;2023-08-30T12:33:33;94139.13;;;38.21;17.04
70127;BME280;57491;42.694;23.314;2023-08-30T12:36:01;94139.22;;;37.50;16.71
70127;BME280;57491;42.694;23.314;2023-08-30T12:38:29;94127.69;;;36.64;18.38
70127;BME280;57491;42.694;23.314;2023-08-30T12:40:57;94104.19;;;35.31;18.26
70127;BME280;57491;42.694;23.314;2023-08-30T12:43:25;94130.50;;;35.34;19.16
70127;BME280;57491;42.694;23.314;2023-08-30T12:45:52;94126.00;;;35.04;18.31
70127;BME280;57491;42.694;23.314;2023-08-30T12:48:19;94117.28;;;35.10;19.05
70127;BME280;57491;42.694;23.314;2023-08-30T12:50:47;94122.59;;;34.53;18.33
70127;BME280;57491;42.694;23.314;2023-08-30T12:53:15;94123.53;;;34.60;19.79
70127;BME280;57491;42.694;23.314;2023-08-30T12:55:43;94120.34;;;33.60;19.34